Time;durP1;ratioP1;P1;durP2;ratioP2;P2;SDS_P1;SDS_P2;PMS_P1;PMS_P2;Temp;Humidity;BMP_temperature;BMP_pressure;BME280_temperature;BME280_humidity;BME280_pressure;Samples;Min_cycle;Max_cycle;Signal;HPM_P1;HPM_P2
2023/04/22 11:26:55;;;;;;;7.20;6.50;;;;;;;14.07;100.00;100361.06;4655976;27;13699599;-75
2023/04/22 11:29:21;;;;;;;8.82;6.80;;;;;;;14.01;100.00;100365.66;5129343;28;20471;-71
2023/04/22 11:31:47;;;;;;;8.50;6.82;;;;;;;13.96;100.00;100369.13;5112496;28;20050;-72
2023/04/22 11:34:13;;;;;;;9.77;7.53;;;;;;;13.91;100.00;100360.94;5130702;28;20027;-74
2023/04/22 11:36:44;;;;;;;8.27;7.45;;;;;;;13.91;100.00;100366.38;5112447;28;20076;-73
2023/04/22 11:39:13;;;;;;;9.93;7.47;;;;;;;13.91;100.00;100365.59;5129181;28;20027;-73
2023/04/22 11:41:41;;;;;;;7.93;6.65;;;;;;;13.88;100.00;100366.91;5128838;28;20115;-75
2023/04/22 11:44:07;;;;;;;10.18;7.13;;;;;;;13.93;100.00;100372.38;5112053;28;20024;-74
2023/04/22 11:46:38;;;;;;;9.13;6.70;;;;;;;13.93;100.00;100369.66;5112258;28;20454;-72
2023/04/22 11:49:14;;;;;;;10.02;6.93;;;;;;;13.97;100.00;100373.50;5130612;28;20032;-74
2023/04/22 11:51:55;;;;;;;8.45;6.78;;;;;;;14.02;100.00;100367.28;5130583;28;20031;-76
2023/04/22 11:54:35;;;;;;;8.65;7.15;;;;;;;14.07;100.00;100374.66;5130273;28;20054;-72
2023/04/22 11:57:10;;;;;;;10.05;7.68;;;;;;;14.05;100.00;100374.13;5124716;28;20374;-74
2023/04/22 11:59:36;;;;;;;9.75;7.55;;;;;;;14.05;100.00;100371.41;5119690;28;20739;-72
2023/04/22 12:02:44;;;;;;;10.40;7.93;;;;;;;14.08;100.00;100373.59;5107379;28;20169;-78
2023/04/22 12:05:40;;;;;;;9.77;7.78;;;;;;;14.11;100.00;100370.34;5118653;28;20019;-79
2023/04/22 12:08:42;;;;;;;11.13;8.82;;;;;;;14.28;100.00;100362.88;5025636;28;20038;-78
2023/04/22 12:11:24;;;;;;;10.98;9.02;;;;;;;14.26;100.00;100362.31;5006911;28;20037;-76
2023/04/22 12:17:24;;;;;;;10.57;9.20;;;;;;;14.23;100.00;100365.53;5091871;28;20062;-76
2023/04/22 12:20:06;;;;;;;9.55;8.52;;;;;;;14.23;100.00;100383.78;5109512;28;20467;-75
2023/04/22 12:22:32;;;;;;;11.15;8.90;;;;;;;14.17;100.00;100381.00;5110968;28;20041;-74
2023/04/22 12:25:20;;;;;;;10.88;8.60;;;;;;;14.12;100.00;100380.16;5109401;28;20080;-81
2023/04/22 12:27:45;;;;;;;9.95;8.27;;;;;;;14.02;100.00;100374.66;5086960;28;20490;-75
2023/04/22 12:30:15;;;;;;;10.57;9.35;;;;;;;13.97;100.00;100380.88;5103949;28;20022;-74
2023/04/22 12:32:41;;;;;;;11.65;8.73;;;;;;;13.95;100.00;100383.00;5088032;28;20108;-73
2023/04/22 12:35:07;;;;;;;9.15;8.25;;;;;;;13.92;100.00;100376.19;5086773;28;20111;-74
2023/04/22 12:37:51;;;;;;;12.13;8.80;;;;;;;13.90;100.00;100377.53;5079610;28;20020;-80
2023/04/22 12:40:16;;;;;;;10.77;9.48;;;;;;;13.78;100.00;100380.41;5071338;28;20111;-76
2023/04/22 12:42:42;;;;;;;11.63;9.20;;;;;;;13.71;100.00;100387.94;5091133;28;20574;-75
2023/04/22 12:45:08;;;;;;;11.15;9.45;;;;;;;13.65;100.00;100397.97;5090362;28;20030;-75
2023/04/22 12:50:56;;;;;;;13.80;9.52;;;;;;;13.59;100.00;100402.53;5075420;28;20094;-75
2023/04/22 12:53:21;;;;;;;13.18;10.40;;;;;;;13.56;100.00;100402.25;5074337;28;20029;-74
2023/04/22 12:56:07;;;;;;;12.13;10.50;;;;;;;13.55;100.00;100395.97;5081367;28;20043;-76
2023/04/22 12:58:32;;;;;;;12.23;10.23;;;;;;;13.52;100.00;100399.19;5074724;28;20051;-76
2023/04/22 13:00:57;;;;;;;11.45;10.30;;;;;;;13.53;100.00;100406.28;5071346;28;20028;-76
2023/04/22 13:03:23;;;;;;;13.63;10.30;;;;;;;13.49;100.00;100407.84;5073448;28;20035;-76
2023/04/22 13:05:48;;;;;;;11.63;10.43;;;;;;;13.47;100.00;100404.59;5073430;28;20029;-75
2023/04/22 13:08:14;;;;;;;12.95;10.85;;;;;;;13.52;100.00;100418.22;5078536;28;20039;-76
2023/04/22 13:10:44;;;;;;;11.68;10.48;;;;;;;13.50;100.00;100408.66;5088000;28;20047;-76
2023/04/22 13:13:10;;;;;;;13.60;11.60;;;;;;;13.53;100.00;100400.84;5087948;28;20038;-75
2023/04/22 13:15:35;;;;;;;13.43;10.80;;;;;;;13.57;100.00;100409.28;5094603;28;20281;-75
2023/04/22 13:18:01;;;;;;;13.05;11.10;;;;;;;13.61;100.00;100405.81;5089514;28;20035;-76
2023/04/22 13:20:27;;;;;;;13.50;10.55;;;;;;;13.59;100.00;100399.81;5093231;28;20089;-78
2023/04/22 13:22:52;;;;;;;14.45;11.95;;;;;;;13.65;100.00;100396.06;5093471;28;20027;-78
2023/04/22 13:25:25;;;;;;;13.18;11.40;;;;;;;13.69;100.00;100401.00;5093825;28;20115;-78
2023/04/22 13:28:01;;;;;;;12.48;11.18;;;;;;;13.69;100.00;100398.28;5112556;28;20565;-78
2023/04/22 13:30:32;;;;;;;12.82;11.32;;;;;;;13.65;100.00;100392.53;5096400;28;20055;-79
2023/04/22 13:32:58;;;;;;;13.27;11.88;;;;;;;13.64;100.00;100388.97;5108445;28;20051;-77
2023/04/22 13:35:23;;;;;;;12.90;11.40;;;;;;;13.64;100.00;100388.97;5084397;28;20581;-75
2023/04/22 13:37:49;;;;;;;12.38;11.07;;;;;;;13.66;100.00;100386.00;5076223;28;20024;-75
2023/04/22 13:40:14;;;;;;;14.32;11.20;;;;;;;13.68;100.00;100389.31;5094428;28;20441;-74
2023/04/22 13:42:40;;;;;;;13.00;11.70;;;;;;;13.70;100.00;100392.56;5095022;28;20042;-75
2023/04/22 13:45:06;;;;;;;13.95;12.45;;;;;;;13.71;100.00;100390.66;5094360;28;20081;-76
2023/04/22 13:47:31;;;;;;;16.13;14.43;;;;;;;13.70;100.00;100392.56;5085173;28;20047;-74
2023/04/22 13:50:25;;;;;;;16.38;13.30;;;;;;;13.76;100.00;100390.75;5113694;28;20032;-79
2023/04/22 13:52:50;;;;;;;13.60;12.20;;;;;;;13.78;100.00;100389.41;5114614;28;20417;-75
2023/04/22 13:55:16;;;;;;;13.18;11.40;;;;;;;13.79;100.00;100384.78;5091617;28;20027;-76
2023/04/22 13:58:34;;;;;;;14.93;13.23;;;;;;;13.83;100.00;100381.28;5094767;28;20104;-82
2023/04/22 14:00:59;;;;;;;13.40;12.18;;;;;;;13.79;100.00;100390.22;5110739;28;20084;-77
2023/04/22 14:03:25;;;;;;;13.00;11.70;;;;;;;13.79;100.00;100388.31;5094662;28;20421;-75
2023/04/22 14:05:51;;;;;;;13.45;12.00;;;;;;;13.79;100.00;100379.34;5113707;28;20491;-75
2023/04/22 14:08:17;;;;;;;13.15;11.38;;;;;;;13.77;100.00;100378.78;5108362;28;20027;-74
2023/04/22 14:10:46;;;;;;;14.13;12.32;;;;;;;13.72;100.00;100386.88;5101678;28;20491;-75
2023/04/22 14:13:11;;;;;;;13.07;11.70;;;;;;;13.72;100.00;100379.53;5112264;28;20020;-74
2023/04/22 14:15:37;;;;;;;13.05;11.60;;;;;;;13.70;100.00;100380.88;5095238;28;20076;-76
2023/04/22 14:18:05;;;;;;;13.15;11.85;;;;;;;13.67;100.00;100381.41;5110486;28;20061;-77
2023/04/22 14:20:31;;;;;;;13.23;11.93;;;;;;;13.68;100.00;100377.59;5086943;28;20387;-73
2023/04/22 14:22:56;;;;;;;13.07;11.63;;;;;;;13.68;100.00;100383.03;5093019;28;20028;-79
2023/04/22 14:25:21;;;;;;;16.15;12.00;;;;;;;13.63;100.00;100387.38;5081676;28;20019;-74
2023/04/22 14:27:47;;;;;;;13.75;12.32;;;;;;;13.59;100.00;100380.78;5113463;28;20113;-73
2023/04/22 14:30:13;;;;;;;14.20;12.80;;;;;;;13.56;100.00;100389.44;5094774;28;20060;-75
2023/04/22 14:32:38;;;;;;;14.40;12.90;;;;;;;13.53;100.00;100387.25;5113157;28;20080;-78
2023/04/22 14:35:04;;;;;;;14.75;13.25;;;;;;;13.55;100.00;100387.81;5113267;28;20042;-75
2023/04/22 14:37:30;;;;;;;16.42;14.75;;;;;;;13.57;100.00;100385.66;5112802;28;20043;-74
2023/04/22 14:39:56;;;;;;;15.23;13.38;;;;;;;13.54;100.00;100383.47;5111859;28;20394;-76
2023/04/22 14:42:22;;;;;;;14.68;11.95;;;;;;;13.52;100.00;100385.59;5112638;28;20024;-72
2023/04/22 14:44:48;;;;;;;14.35;12.85;;;;;;;13.52;100.00;100385.59;5082264;28;20114;-75
2023/04/22 14:47:16;;;;;;;13.30;11.85;;;;;;;13.55;100.00;100390.53;5106497;28;20502;-77
2023/04/22 14:49:41;;;;;;;14.05;11.63;;;;;;;13.57;100.00;100393.00;5101108;28;20173;-76
2023/04/22 14:52:07;;;;;;;10.95;9.90;;;;;;;13.60;100.00;100385.16;5108845;28;20527;-74
2023/04/22 14:54:32;;;;;;;10.52;9.48;;;;;;;13.59;100.00;100388.94;5074026;28;20032;-74
2023/04/22 14:56:58;;;;;;;9.70;8.70;;;;;;;13.57;100.00;100388.38;5099474;28;20538;-74
2023/04/22 14:59:23;;;;;;;10.73;8.95;;;;;;;13.58;100.00;100384.56;5084686;28;20036;-75
2023/04/22 15:01:49;;;;;;;11.00;8.88;;;;;;;13.57;100.00;100388.38;5082822;28;20082;-75
2023/04/22 15:04:15;;;;;;;11.70;8.27;;;;;;;13.58;100.00;100383.75;5109946;28;20077;-74
2023/04/22 15:06:41;;;;;;;11.35;8.80;;;;;;;13.58;100.00;100383.75;5094052;28;20402;-76
2023/04/22 15:09:06;;;;;;;9.77;7.65;;;;;;;13.59;100.00;100383.50;5093896;28;20032;-74
2023/04/22 15:11:31;;;;;;;10.23;8.25;;;;;;;13.61;100.00;100384.06;5112231;28;20019;-74
2023/04/22 15:13:57;;;;;;;7.72;7.00;;;;;;;13.59;100.00;100380.78;5112587;28;20541;-74
2023/04/22 15:16:25;;;;;;;8.02;7.20;;;;;;;13.59;100.00;100386.22;5112657;28;20043;-74
2023/04/22 15:18:50;;;;;;;7.18;6.57;;;;;;;13.58;100.00;100383.75;5113105;28;20112;-74
2023/04/22 15:21:16;;;;;;;7.45;6.75;;;;;;;13.57;100.00;100377.50;5111997;28;20106;-74
2023/04/22 15:23:41;;;;;;;7.13;6.40;;;;;;;13.54;100.00;100385.34;5110698;28;20031;-74
2023/04/22 15:26:06;;;;;;;7.63;6.82;;;;;;;13.50;100.00;100387.75;5112802;28;20059;-74
2023/04/22 15:28:32;;;;;;;6.47;5.88;;;;;;;13.48;100.00;100379.03;5112717;28;20027;-73
2023/04/22 15:30:58;;;;;;;6.50;6.00;;;;;;;13.49;100.00;100375.25;5093978;28;20020;-73
2023/04/22 15:33:23;;;;;;;6.35;5.75;;;;;;;13.51;100.00;100383.13;5112592;28;20039;-73
2023/04/22 15:35:49;;;;;;;6.28;5.78;;;;;;;13.49;100.00;100380.69;5111150;28;20028;-73
2023/04/22 15:38:15;;;;;;;6.95;5.85;;;;;;;13.47;100.00;100386.38;5094602;28;20020;-76
2023/04/22 15:40:41;;;;;;;8.02;6.30;;;;;;;13.46;100.00;100392.88;5111944;28;20063;-75
2023/04/22 15:43:06;;;;;;;6.45;5.65;;;;;;;13.46;100.00;100382.00;5081364;28;20098;-74
2023/04/22 15:45:35;;;;;;;6.60;5.97;;;;;;;13.45;100.00;100384.97;5111760;28;20038;-74
2023/04/22 15:48:01;;;;;;;10.75;9.75;;;;;;;13.45;100.00;100374.09;5110386;28;20471;-75
2023/04/22 15:50:27;;;;;;;51.40;45.80;;;;;;;13.44;100.00;100377.91;5105204;28;20027;-74
2023/04/22 15:52:53;;;;;;;8.13;7.32;;;;;;;13.40;100.00;100383.03;5111748;28;20051;-77
2023/04/22 15:55:19;;;;;;;12.32;10.80;;;;;;;13.33;100.00;100381.56;5106266;28;20100;-76
2023/04/22 15:57:45;;;;;;;12.77;11.43;;;;;;;13.26;100.00;100377.13;5094775;28;20058;-74
2023/04/22 16:00:12;;;;;;;14.98;11.35;;;;;;;13.19;100.00;100373.78;5100656;28;20073;-75
